This is the latest recevied weather packets stored in our database for station/object KU9TRY. If no packets are shown the sender has not sent any weather packets the latest 10 day(s).
| Time | Temp. | Humidity | Pressure | Rain* | Wind** | Luminosity | Snow |
|---|---|---|---|---|---|---|---|
| 1787941992 | 31.67° C | 41% | 1018.2 hPa | 0 mm | - | 114 W/m² | - |
| 1787941687 | 31.67° C | 40% | 1018.1 hPa | 0 mm | - | 113 W/m² | - |
| 1787941386 | 31.67° C | 43% | 1018.2 hPa | 0 mm | - | 118 W/m² | - |
| 1787941085 | 31.67° C | 40% | 1018.2 hPa | 0 mm | - | 175 W/m² | - |
| 1787940780 | 31.67° C | 41% | 1018.2 hPa | 0 mm | - | 124 W/m² | - |
| 1787940478 | 31.67° C | 46% | 1018.3 hPa | 0 mm | - | 97 W/m² | - |
| 1787940172 | 31.11° C | 46% | 1018.1 hPa | 0 mm | - | 95 W/m² | - |
| 1787939872 | 31.11° C | 44% | 1018.4 hPa | 0 mm | - | 92 W/m² | - |
| 1787939567 | 31.67° C | 46% | 1018.3 hPa | 0 mm | - | 447 W/m² | - |
| 1787939267 | 30.56° C | 48% | 1018.5 hPa | 0 mm | - | 918 W/m² | - |
| 1787938962 | 30.56° C | 46% | 1018.4 hPa | 0 mm | - | 917 W/m² | - |
| 1787938660 | 30.56° C | 48% | 1018.6 hPa | 0 mm | - | 944 W/m² | - |
| 1787938358 | 30° C | 54% | 1018.7 hPa | 0 mm | - | 959 W/m² | - |
| 1787938058 | 30° C | 51% | 1018.6 hPa | 0 mm | - | 136 W/m² | - |
| 1787937753 | 30.56° C | 48% | 1018.7 hPa | 0 mm | - | 166 W/m² | - |
| 1787937449 | 30.56° C | 51% | 1018.8 hPa | 0 mm | - | 878 W/m² | - |
| 1787937146 | 31.11° C | 50% | 1018.9 hPa | 0 mm | - | 203 W/m² | - |
| 1787936845 | 30.56° C | 48% | 1018.8 hPa | 0 mm | - | 960 W/m² | - |
| 1787936540 | 30.56° C | 51% | 1018.9 hPa | 0 mm | - | 708 W/m² | - |
| 1787936239 | 31.11° C | 49% | 1018.9 hPa | 0 mm | - | 198 W/m² | - |
| 1787935935 | 30.56° C | 51% | 1018.6 hPa | 0 mm | - | 948 W/m² | - |
| 1787935635 | 30.56° C | 50% | 1018.7 hPa | 0 mm | - | 970 W/m² | - |
| 1787935332 | 28.89° C | 58% | 1018.8 hPa | 0 mm | - | 953 W/m² | - |
| 1787935032 | 29.44° C | 58% | 1018.8 hPa | 0 mm | - | 157 W/m² | - |
| 1787934727 | 29.44° C | 58% | 1018.9 hPa | 0 mm | - | 152 W/m² | - |
* Rain latest hour (hover to see other rain measurements)
** Current wind speed in m/s (hover to see current wind gust speed)